createdAt,value
2023-04-28T00:01:45.793Z,3.90
2023-04-28T00:04:13.059Z,3.80
2023-04-28T00:06:41.173Z,3.80
2023-04-28T00:09:11.250Z,3.70
2023-04-28T00:11:38.874Z,3.70
2023-04-28T00:14:08.264Z,3.70
2023-04-28T00:16:35.191Z,3.70
2023-04-28T00:19:02.090Z,3.70
2023-04-28T00:21:29.049Z,3.60
2023-04-28T00:23:56.284Z,3.50
2023-04-28T00:26:23.318Z,3.50
2023-04-28T00:28:50.564Z,3.40
2023-04-28T00:31:17.691Z,3.30
2023-04-28T00:33:44.929Z,3.30
2023-04-28T00:36:11.978Z,3.30
2023-04-28T00:38:39.068Z,3.20
2023-04-28T00:41:06.523Z,3.20
2023-04-28T00:43:47.776Z,3.30
2023-04-28T00:46:32.159Z,3.20
2023-04-28T00:48:59.187Z,3.20
2023-04-28T00:51:27.801Z,3.10
2023-04-28T00:53:55.284Z,3.10
2023-04-28T00:56:22.200Z,3.00
2023-04-28T00:58:49.118Z,3.00
2023-04-28T01:01:16.042Z,3.10
2023-04-28T01:03:43.167Z,3.10
2023-04-28T01:06:10.887Z,3.00
2023-04-28T01:08:38.848Z,3.00
2023-04-28T01:11:07.129Z,3.00
2023-04-28T01:13:34.107Z,3.00
2023-04-28T01:16:01.245Z,2.90
2023-04-28T01:18:28.630Z,2.90
2023-04-28T01:20:56.364Z,2.90
2023-04-28T01:23:23.467Z,2.90
2023-04-28T01:25:50.520Z,2.90
2023-04-28T01:28:17.598Z,2.90
2023-04-28T01:30:44.547Z,2.90
2023-04-28T01:33:11.636Z,2.90
2023-04-28T01:35:38.619Z,2.90
2023-04-28T01:38:05.615Z,2.90
2023-04-28T01:40:32.558Z,2.90
2023-04-28T01:42:59.451Z,2.80
2023-04-28T01:45:26.333Z,2.80
2023-04-28T01:47:53.359Z,2.70
2023-04-28T01:50:20.256Z,2.70
2023-04-28T01:52:47.190Z,2.70
2023-04-28T01:55:14.195Z,2.70
2023-04-28T01:57:41.164Z,2.70
2023-04-28T02:00:08.539Z,2.70
2023-04-28T02:02:35.642Z,2.70
2023-04-28T02:05:02.672Z,2.60
2023-04-28T02:07:29.533Z,2.60
2023-04-28T02:09:56.644Z,2.60
2023-04-28T02:12:23.628Z,2.60
2023-04-28T02:14:51.510Z,2.60
2023-04-28T02:17:18.445Z,2.60
2023-04-28T02:19:45.419Z,2.60
2023-04-28T02:22:12.299Z,2.60
2023-04-28T02:24:39.247Z,2.60
2023-04-28T02:27:06.330Z,2.60
2023-04-28T02:29:33.361Z,2.60
2023-04-28T02:32:00.617Z,2.60
2023-04-28T02:34:27.624Z,2.60
2023-04-28T02:36:54.621Z,2.60
2023-04-28T02:39:22.795Z,2.60
2023-04-28T02:41:49.621Z,2.60
2023-04-28T02:44:16.687Z,2.60
2023-04-28T02:46:44.022Z,2.60
2023-04-28T02:49:10.955Z,2.60
2023-04-28T02:51:37.929Z,2.50
2023-04-28T02:54:04.792Z,2.50
2023-04-28T02:56:31.840Z,2.50
2023-04-28T03:01:26.242Z,2.50
2023-04-28T03:03:53.413Z,2.50
2023-04-28T03:06:20.458Z,2.50
2023-04-28T03:08:49.850Z,2.60
2023-04-28T03:13:45.984Z,2.60
2023-04-28T03:16:12.915Z,2.60
2023-04-28T03:18:39.857Z,2.60
2023-04-28T03:21:06.846Z,2.60
2023-04-28T03:23:33.711Z,2.60
2023-04-28T03:26:00.674Z,2.50
2023-04-28T03:28:27.617Z,2.50
2023-04-28T03:30:54.666Z,2.50
2023-04-28T03:33:21.676Z,2.50
2023-04-28T03:35:48.626Z,2.50
2023-04-28T03:38:15.750Z,2.50
2023-04-28T03:40:42.679Z,2.50
2023-04-28T03:43:09.582Z,2.50
2023-04-28T03:45:36.760Z,2.50
2023-04-28T03:48:03.818Z,2.50
2023-04-28T03:50:30.717Z,2.50
2023-04-28T03:52:57.538Z,2.40
2023-04-28T03:55:26.276Z,2.40
2023-04-28T03:57:53.603Z,2.30
2023-04-28T04:02:48.165Z,2.40
2023-04-28T04:05:15.440Z,2.40
2023-04-28T04:07:42.414Z,2.40
2023-04-28T04:10:10.097Z,2.40
2023-04-28T04:12:37.007Z,2.50
2023-04-28T04:15:04.200Z,2.50
2023-04-28T04:17:31.750Z,2.50
2023-04-28T04:19:58.716Z,2.50
2023-04-28T04:22:25.602Z,2.50
2023-04-28T04:24:52.429Z,2.50
2023-04-28T04:27:19.347Z,2.60
2023-04-28T04:29:46.264Z,2.60
2023-04-28T04:32:13.248Z,2.60
2023-04-28T04:34:40.111Z,2.70
2023-04-28T04:37:07.225Z,2.70
2023-04-28T04:39:34.126Z,2.80
2023-04-28T04:42:07.466Z,2.90
2023-04-28T04:44:43.959Z,3.00
2023-04-28T04:47:11.196Z,3.00
2023-04-28T04:49:38.221Z,3.00
2023-04-28T04:52:06.766Z,3.10
2023-04-28T04:54:33.737Z,3.20
2023-04-28T04:57:00.709Z,3.20
2023-04-28T04:59:28.233Z,3.30
2023-04-28T05:01:55.132Z,3.30
2023-04-28T05:04:22.511Z,3.50
2023-04-28T05:06:49.978Z,3.60
2023-04-28T05:09:17.231Z,3.60
2023-04-28T05:14:12.083Z,3.90
2023-04-28T05:16:39.591Z,4.00
2023-04-28T05:19:06.482Z,4.00
2023-04-28T05:21:33.313Z,4.10
2023-04-28T05:24:00.283Z,4.20
2023-04-28T05:26:27.283Z,4.30
2023-04-28T05:28:54.898Z,4.40
2023-04-28T05:31:21.887Z,4.40
2023-04-28T05:33:48.813Z,4.50
2023-04-28T05:36:17.291Z,4.70
2023-04-28T05:38:44.864Z,4.70
2023-04-28T05:41:11.755Z,4.80
2023-04-28T05:43:38.688Z,4.90
2023-04-28T05:46:12.057Z,5.00
2023-04-28T05:48:46.259Z,5.10
2023-04-28T05:51:13.281Z,5.20
2023-04-28T05:53:40.173Z,5.30
2023-04-28T05:56:08.065Z,5.50
2023-04-28T05:58:34.997Z,5.60
2023-04-28T06:01:01.969Z,5.70
2023-04-28T06:03:29.129Z,5.80
2023-04-28T06:05:56.438Z,5.90
2023-04-28T06:08:23.560Z,6.10
2023-04-28T06:10:50.518Z,6.10
2023-04-28T06:13:17.480Z,6.30
2023-04-28T06:15:44.449Z,6.40
2023-04-28T06:18:11.587Z,6.40
2023-04-28T06:20:38.490Z,6.60
2023-04-28T06:23:05.341Z,6.80
2023-04-28T06:25:32.487Z,6.80
2023-04-28T06:27:59.404Z,6.90
2023-04-28T06:30:26.376Z,7.10
2023-04-28T06:32:53.623Z,7.10
2023-04-28T06:35:20.816Z,7.30
2023-04-28T06:37:47.704Z,7.40
2023-04-28T06:40:14.801Z,7.50
2023-04-28T06:42:41.854Z,7.50
2023-04-28T06:45:09.531Z,7.60
2023-04-28T06:47:37.524Z,7.60
2023-04-28T06:50:04.755Z,7.70
2023-04-28T06:52:38.560Z,7.80
2023-04-28T06:55:07.925Z,7.80
2023-04-28T06:57:34.927Z,8.00
2023-04-28T07:00:02.416Z,8.00
2023-04-28T07:02:29.515Z,8.00
2023-04-28T07:04:56.647Z,8.00
2023-04-28T07:07:23.495Z,8.10
2023-04-28T07:09:50.582Z,8.20
2023-04-28T07:12:17.532Z,8.30
2023-04-28T07:14:44.430Z,8.30
2023-04-28T07:17:11.712Z,8.40
2023-04-28T07:19:38.619Z,8.40
2023-04-28T07:22:05.776Z,8.50
2023-04-28T07:24:32.798Z,8.60
2023-04-28T07:26:59.764Z,8.80
2023-04-28T07:29:29.196Z,8.80
2023-04-28T07:32:00.738Z,8.80
2023-04-28T07:34:28.504Z,8.90
2023-04-28T07:36:56.224Z,9.00
2023-04-28T07:39:23.074Z,9.10
2023-04-28T07:41:50.218Z,9.20
2023-04-28T07:44:17.542Z,9.30
2023-04-28T07:46:44.601Z,9.70
2023-04-28T07:49:11.617Z,10.00
2023-04-28T07:51:38.727Z,10.10
2023-04-28T07:54:05.712Z,10.00
2023-04-28T07:56:32.755Z,10.00
2023-04-28T07:58:59.765Z,10.00
2023-04-28T08:01:26.766Z,10.00
2023-04-28T08:03:53.952Z,9.80
2023-04-28T08:06:21.119Z,9.60
2023-04-28T08:08:48.049Z,9.40
2023-04-28T08:11:14.984Z,9.30
2023-04-28T08:13:41.865Z,9.30
2023-04-28T08:16:08.846Z,9.30
2023-04-28T08:18:36.146Z,9.30
2023-04-28T08:21:03.077Z,9.50
2023-04-28T08:23:32.001Z,9.70
2023-04-28T08:25:59.276Z,9.90
2023-04-28T08:28:26.402Z,10.10
2023-04-28T08:30:55.588Z,10.10
2023-04-28T08:33:24.224Z,9.90
2023-04-28T08:35:51.638Z,9.80
2023-04-28T08:38:19.104Z,9.80
2023-04-28T08:40:46.245Z,9.60
2023-04-28T08:43:15.163Z,9.70
2023-04-28T08:45:43.680Z,9.80
2023-04-28T08:48:22.765Z,10.00
2023-04-28T08:50:54.870Z,10.20
2023-04-28T08:53:26.815Z,10.50
2023-04-28T08:55:58.337Z,10.40
2023-04-28T08:58:26.812Z,10.30
2023-04-28T09:00:54.638Z,10.10
2023-04-28T09:03:22.104Z,10.00
2023-04-28T09:05:49.381Z,9.90
2023-04-28T09:08:16.467Z,10.10
2023-04-28T09:10:43.488Z,10.00
2023-04-28T09:13:10.645Z,10.00
2023-04-28T09:15:42.383Z,10.00
2023-04-28T09:18:14.548Z,10.10
2023-04-28T09:20:41.566Z,10.30
2023-04-28T09:23:21.410Z,10.50
2023-04-28T09:26:08.002Z,10.70
2023-04-28T09:28:36.329Z,10.90
2023-04-28T09:31:04.159Z,10.80
2023-04-28T09:33:31.496Z,10.70
2023-04-28T09:35:58.442Z,10.60
2023-04-28T09:38:25.698Z,10.50
2023-04-28T09:41:01.458Z,10.50
2023-04-28T09:43:35.618Z,10.40
2023-04-28T09:46:05.057Z,10.30
2023-04-28T09:48:38.021Z,10.40
2023-04-28T09:51:06.598Z,10.60
2023-04-28T09:53:34.503Z,10.60
2023-04-28T09:56:05.479Z,10.60
2023-04-28T09:58:35.420Z,10.50
2023-04-28T10:01:03.256Z,10.40
2023-04-28T10:03:31.397Z,10.20
2023-04-28T10:05:59.889Z,10.20
2023-04-28T10:08:28.019Z,10.00
2023-04-28T10:10:55.642Z,10.00
2023-04-28T10:13:23.741Z,9.90
2023-04-28T10:15:54.747Z,9.90
2023-04-28T10:18:23.753Z,9.80
2023-04-28T10:20:58.585Z,9.80
2023-04-28T10:23:31.558Z,9.70
2023-04-28T10:25:59.982Z,9.70
2023-04-28T10:28:30.020Z,9.70
2023-04-28T10:31:11.583Z,9.70
2023-04-28T10:33:39.269Z,9.80
2023-04-28T10:36:07.581Z,9.90
2023-04-28T10:38:36.173Z,9.90
2023-04-28T10:41:03.506Z,10.00
2023-04-28T10:43:33.016Z,10.10
2023-04-28T10:46:02.077Z,10.00
2023-04-28T10:48:37.975Z,10.10
2023-04-28T10:51:05.370Z,10.30
2023-04-28T10:53:51.278Z,10.40
2023-04-28T10:56:19.376Z,10.80
2023-04-28T10:58:51.999Z,11.00
2023-04-28T11:01:22.355Z,11.20
2023-04-28T11:04:16.139Z,11.20
2023-04-28T11:06:45.637Z,11.10
2023-04-28T11:09:15.714Z,11.10
2023-04-28T11:11:56.247Z,11.20
2023-04-28T11:14:30.240Z,11.40
2023-04-28T11:17:08.796Z,11.30
2023-04-28T11:19:38.002Z,11.30
2023-04-28T11:22:13.560Z,11.20
2023-04-28T11:24:40.885Z,11.30
2023-04-28T11:27:08.597Z,11.50
2023-04-28T11:29:40.958Z,11.80
2023-04-28T11:32:10.139Z,11.90
2023-04-28T11:34:37.895Z,11.80
2023-04-28T11:37:07.210Z,11.70
2023-04-28T11:39:38.118Z,11.60
2023-04-28T11:42:11.563Z,11.50
2023-04-28T11:44:38.570Z,11.60
2023-04-28T11:47:06.970Z,11.60
2023-04-28T11:49:46.672Z,11.70
2023-04-28T11:52:14.183Z,11.80
2023-04-28T11:54:44.018Z,11.90
2023-04-28T11:57:23.495Z,12.20
2023-04-28T11:59:51.421Z,12.40
2023-04-28T12:02:31.424Z,12.60
2023-04-28T12:05:07.487Z,12.80
2023-04-28T12:07:45.305Z,13.00
2023-04-28T12:10:17.221Z,13.00
2023-04-28T12:12:51.656Z,12.90
2023-04-28T12:15:21.835Z,12.80
2023-04-28T12:17:50.845Z,12.80
2023-04-28T12:20:38.694Z,12.70
2023-04-28T12:23:06.504Z,12.60
2023-04-28T12:25:35.357Z,12.70
2023-04-28T12:28:04.628Z,12.80
2023-04-28T12:30:33.892Z,13.00
2023-04-28T12:33:01.226Z,13.20
2023-04-28T12:35:29.238Z,13.40
2023-04-28T12:37:58.661Z,13.50
2023-04-28T12:40:26.280Z,13.50
2023-04-28T12:42:54.212Z,13.50
2023-04-28T12:45:21.062Z,13.60
2023-04-28T12:47:48.383Z,13.60
2023-04-28T12:50:15.503Z,13.60
2023-04-28T12:52:42.622Z,13.70
2023-04-28T12:55:09.947Z,13.70
2023-04-28T12:57:39.272Z,13.70
2023-04-28T13:00:07.815Z,13.70
2023-04-28T13:02:35.432Z,13.70
2023-04-28T13:05:03.073Z,13.60
2023-04-28T13:07:30.538Z,13.60
2023-04-28T13:09:58.571Z,13.50
2023-04-28T13:12:25.678Z,13.40
2023-04-28T13:14:52.690Z,13.30
2023-04-28T13:17:19.661Z,13.30
2023-04-28T13:19:47.399Z,13.20
2023-04-28T13:22:14.797Z,13.00
2023-04-28T13:24:41.712Z,12.70
2023-04-28T13:27:11.676Z,12.40
2023-04-28T13:29:38.636Z,12.10
2023-04-28T13:32:06.298Z,11.90
2023-04-28T13:34:33.744Z,11.70
2023-04-28T13:37:00.663Z,11.70
2023-04-28T13:39:27.603Z,11.60
2023-04-28T13:41:55.251Z,11.50
2023-04-28T13:44:22.249Z,11.40
2023-04-28T13:46:49.845Z,11.40
2023-04-28T13:49:17.105Z,11.50
2023-04-28T13:51:45.809Z,11.50
2023-04-28T13:54:12.887Z,11.60
2023-04-28T13:56:39.810Z,11.60
2023-04-28T13:59:07.382Z,11.60
2023-04-28T14:01:34.473Z,11.50
2023-04-28T14:04:01.811Z,11.40
2023-04-28T14:06:28.950Z,11.40
2023-04-28T14:08:55.941Z,11.30
2023-04-28T14:11:22.927Z,11.20
2023-04-28T14:13:49.857Z,11.10
2023-04-28T14:16:16.890Z,11.10
2023-04-28T14:18:43.852Z,11.10
2023-04-28T14:21:11.346Z,11.00
2023-04-28T14:23:38.687Z,11.00
2023-04-28T14:26:06.890Z,11.10
2023-04-28T14:28:33.766Z,11.10
2023-04-28T14:31:06.335Z,11.10
2023-04-28T14:33:33.327Z,11.00
2023-04-28T14:36:02.300Z,10.90
2023-04-28T14:38:30.750Z,10.80
2023-04-28T14:40:57.967Z,10.70
2023-04-28T14:43:25.022Z,10.70
2023-04-28T14:45:52.486Z,10.60
2023-04-28T14:48:20.238Z,10.50
2023-04-28T14:50:47.680Z,10.40
2023-04-28T14:53:14.724Z,10.40
2023-04-28T14:55:41.626Z,10.30
2023-04-28T14:58:08.571Z,10.30
2023-04-28T15:00:35.556Z,10.20
2023-04-28T15:03:02.593Z,10.10
2023-04-28T15:05:29.504Z,10.20
2023-04-28T15:07:56.430Z,10.20
2023-04-28T15:10:23.338Z,10.30
2023-04-28T15:12:50.587Z,10.30
2023-04-28T15:15:17.836Z,10.40
2023-04-28T15:17:45.503Z,10.40
2023-04-28T15:20:12.553Z,10.40
2023-04-28T15:22:39.556Z,10.30
2023-04-28T15:25:06.942Z,10.30
2023-04-28T15:27:33.784Z,10.20
2023-04-28T15:30:01.402Z,10.10
2023-04-28T15:32:30.413Z,10.10
2023-04-28T15:34:57.706Z,10.00
2023-04-28T15:37:44.609Z,10.00
2023-04-28T15:40:13.396Z,10.10
2023-04-28T15:42:48.815Z,10.10
2023-04-28T15:45:16.889Z,10.20
2023-04-28T15:47:45.372Z,10.20
2023-04-28T15:50:12.496Z,10.10
2023-04-28T15:52:46.371Z,10.10
2023-04-28T15:55:17.886Z,10.10
2023-04-28T15:57:45.988Z,10.10
2023-04-28T16:00:15.597Z,10.00
2023-04-28T16:02:46.677Z,10.00
2023-04-28T16:05:14.277Z,10.00
2023-04-28T16:07:41.604Z,10.00
2023-04-28T16:10:11.417Z,9.90
2023-04-28T16:12:39.776Z,9.90
2023-04-28T16:15:08.878Z,9.80
2023-04-28T16:17:38.178Z,9.70
2023-04-28T16:20:09.961Z,9.80
2023-04-28T16:22:37.741Z,9.70
2023-04-28T16:25:05.182Z,9.70
2023-04-28T16:27:32.909Z,9.70
2023-04-28T16:30:00.087Z,9.60
2023-04-28T16:32:27.214Z,9.60
2023-04-28T16:34:57.512Z,9.50
2023-04-28T16:37:24.399Z,9.40
2023-04-28T16:39:51.546Z,9.30
2023-04-28T16:42:20.935Z,9.20
2023-04-28T16:44:49.542Z,9.10
2023-04-28T16:47:17.995Z,9.10
2023-04-28T16:49:44.993Z,9.10
2023-04-28T16:52:11.863Z,9.10
2023-04-28T16:54:38.810Z,9.00
2023-04-28T16:57:06.660Z,9.00
2023-04-28T16:59:34.095Z,8.90
2023-04-28T17:02:03.817Z,8.80
2023-04-28T17:04:31.519Z,8.70
2023-04-28T17:06:58.932Z,8.70
2023-04-28T17:09:27.608Z,8.60
2023-04-28T17:11:55.043Z,8.50
2023-04-28T17:14:22.302Z,8.50
2023-04-28T17:16:49.513Z,8.40
2023-04-28T17:19:17.007Z,8.40
2023-04-28T17:21:43.964Z,8.40
2023-04-28T17:24:10.969Z,8.30
2023-04-28T17:26:37.853Z,8.20
2023-04-28T17:29:04.948Z,8.20
2023-04-28T17:31:32.106Z,8.20
2023-04-28T17:34:00.833Z,8.10
2023-04-28T17:36:29.007Z,8.10
2023-04-28T17:38:56.099Z,8.00
2023-04-28T17:41:23.274Z,7.90
2023-04-28T17:43:53.656Z,7.90
2023-04-28T17:46:21.983Z,7.80
2023-04-28T17:48:49.547Z,7.80
2023-04-28T17:51:16.861Z,7.70
2023-04-28T17:53:46.326Z,7.70
2023-04-28T17:56:13.207Z,7.70
2023-04-28T17:58:40.143Z,7.60
2023-04-28T18:01:08.257Z,7.60
2023-04-28T18:03:36.747Z,7.50
2023-04-28T18:06:07.719Z,7.50
2023-04-28T18:08:36.594Z,7.40
2023-04-28T18:11:03.784Z,7.40
2023-04-28T18:13:31.067Z,7.50
2023-04-28T18:15:58.046Z,7.40
2023-04-28T18:18:25.864Z,7.40
2023-04-28T18:21:00.376Z,7.30
2023-04-28T18:23:27.540Z,7.30
2023-04-28T18:25:54.476Z,7.30
2023-04-28T18:28:21.676Z,7.20
2023-04-28T18:30:48.599Z,7.20
2023-04-28T18:33:15.464Z,7.20
2023-04-28T18:35:42.425Z,7.10
2023-04-28T18:38:09.888Z,7.10
2023-04-28T18:40:38.658Z,7.10
2023-04-28T18:43:07.410Z,7.10
2023-04-28T18:45:41.232Z,7.00
2023-04-28T18:48:09.884Z,7.00
2023-04-28T18:50:37.170Z,7.00
2023-04-28T18:53:05.139Z,6.90
2023-04-28T18:55:34.927Z,6.90
2023-04-28T18:58:02.318Z,6.80
2023-04-28T19:00:29.451Z,6.80
2023-04-28T19:02:56.792Z,6.80
2023-04-28T19:05:23.978Z,6.80
2023-04-28T19:07:50.797Z,6.80
2023-04-28T19:10:18.061Z,6.80
2023-04-28T19:12:44.953Z,6.80
2023-04-28T19:15:11.946Z,6.70
2023-04-28T19:17:39.554Z,6.70
2023-04-28T19:20:07.247Z,6.70
2023-04-28T19:22:38.022Z,6.70
2023-04-28T19:25:06.914Z,6.70
2023-04-28T19:27:38.728Z,6.70
2023-04-28T19:30:08.859Z,6.70
2023-04-28T19:32:35.888Z,6.70
2023-04-28T19:35:04.349Z,6.60
2023-04-28T19:37:35.109Z,6.60
2023-04-28T19:40:05.041Z,6.70
2023-04-28T19:42:33.256Z,6.60
2023-04-28T19:45:00.330Z,6.60
2023-04-28T19:47:33.428Z,6.60
2023-04-28T19:50:00.617Z,6.60
2023-04-28T19:52:27.998Z,6.60
2023-04-28T19:54:55.006Z,6.60
2023-04-28T19:57:22.213Z,6.60
2023-04-28T19:59:49.752Z,6.60
2023-04-28T20:02:17.222Z,6.60
2023-04-28T20:04:44.464Z,6.60
2023-04-28T20:07:12.073Z,6.50
2023-04-28T20:09:39.248Z,6.50
2023-04-28T20:12:08.200Z,6.50
2023-04-28T20:14:35.715Z,6.60
2023-04-28T20:17:03.812Z,6.60
2023-04-28T20:19:31.155Z,6.60
2023-04-28T20:21:58.172Z,6.60
2023-04-28T20:24:25.443Z,6.50
2023-04-28T20:26:54.748Z,6.50
2023-04-28T20:29:21.902Z,6.50
2023-04-28T20:31:48.922Z,6.60
2023-04-28T20:34:17.278Z,6.50
2023-04-28T20:36:44.377Z,6.50
2023-04-28T20:39:11.819Z,6.50
2023-04-28T20:41:41.036Z,6.50
2023-04-28T20:44:08.744Z,6.50
2023-04-28T20:46:35.786Z,6.60
2023-04-28T20:49:04.591Z,6.60
2023-04-28T20:51:34.245Z,6.60
2023-04-28T20:54:01.925Z,6.60
2023-04-28T20:56:28.832Z,6.60
2023-04-28T20:58:56.108Z,6.60
2023-04-28T21:01:23.303Z,6.60
2023-04-28T21:03:50.817Z,6.60
2023-04-28T21:06:18.693Z,6.60
2023-04-28T21:08:45.912Z,6.60
2023-04-28T21:11:17.117Z,6.60
2023-04-28T21:13:45.163Z,6.60
2023-04-28T21:16:19.357Z,6.60
2023-04-28T21:18:49.394Z,6.60
2023-04-28T21:21:16.790Z,6.60
2023-04-28T21:23:44.328Z,6.60
2023-04-28T21:26:11.385Z,6.50
2023-04-28T21:28:39.920Z,6.60
2023-04-28T21:31:07.263Z,6.50
2023-04-28T21:33:34.362Z,6.60
2023-04-28T21:36:07.487Z,6.50
2023-04-28T21:38:35.478Z,6.50
2023-04-28T21:41:02.492Z,6.50
2023-04-28T21:43:29.567Z,6.50
2023-04-28T21:45:56.456Z,6.50
2023-04-28T21:48:23.351Z,6.50
2023-04-28T21:50:50.437Z,6.50
2023-04-28T21:53:17.302Z,6.60
2023-04-28T21:55:44.790Z,6.60
2023-04-28T21:58:12.328Z,6.60
2023-04-28T22:00:43.402Z,6.60
2023-04-28T22:03:11.293Z,6.60
2023-04-28T22:05:40.587Z,6.60
2023-04-28T22:08:07.781Z,6.60
2023-04-28T22:10:35.281Z,6.60
2023-04-28T22:13:03.223Z,6.70
2023-04-28T22:15:30.198Z,6.70
2023-04-28T22:17:58.237Z,6.80
2023-04-28T22:20:25.411Z,6.80
2023-04-28T22:22:52.623Z,6.80
2023-04-28T22:25:19.691Z,6.80
2023-04-28T22:27:46.874Z,6.80
2023-04-28T22:30:14.154Z,6.80
2023-04-28T22:32:44.762Z,6.90
2023-04-28T22:35:16.752Z,6.90
2023-04-28T22:37:44.046Z,6.80
2023-04-28T22:40:11.672Z,6.80
2023-04-28T22:42:40.120Z,6.80
2023-04-28T22:45:07.752Z,6.80
2023-04-28T22:47:35.238Z,6.80
2023-04-28T22:50:06.034Z,6.80
2023-04-28T22:52:34.057Z,6.80
2023-04-28T22:55:01.219Z,6.80
2023-04-28T22:57:28.264Z,6.70
2023-04-28T22:59:55.508Z,6.70
2023-04-28T23:02:23.261Z,7.90
2023-04-28T23:04:50.552Z,6.70
2023-04-28T23:07:17.712Z,6.70
2023-04-28T23:09:44.701Z,6.70
2023-04-28T23:12:11.663Z,6.70
2023-04-28T23:14:38.617Z,6.70
2023-04-28T23:17:05.695Z,6.70
2023-04-28T23:19:32.606Z,6.70
2023-04-28T23:21:59.746Z,6.60
2023-04-28T23:24:27.505Z,6.70
2023-04-28T23:26:54.523Z,6.70
2023-04-28T23:29:21.528Z,6.60
2023-04-28T23:31:52.591Z,6.60
2023-04-28T23:34:19.794Z,6.60
2023-04-28T23:36:46.942Z,6.50
2023-04-28T23:39:13.891Z,6.50
2023-04-28T23:41:41.291Z,6.50
2023-04-28T23:44:08.439Z,6.50
2023-04-28T23:46:35.329Z,6.50
2023-04-28T23:49:02.382Z,6.40
2023-04-28T23:51:29.235Z,6.40
2023-04-28T23:53:56.246Z,6.40
2023-04-28T23:56:23.194Z,6.40
2023-04-28T23:58:50.046Z,6.40
